createdAt,value
2024-02-23T00:02:16.313Z,13.10
2024-02-23T00:04:48.931Z,13.75
2024-02-23T00:07:18.930Z,17.60
2024-02-23T00:09:49.196Z,11.57
2024-02-23T00:12:20.681Z,7.85
2024-02-23T00:14:50.174Z,10.73
2024-02-23T00:17:21.684Z,7.68
2024-02-23T00:19:50.718Z,8.57
2024-02-23T00:22:20.669Z,12.52
2024-02-23T00:24:49.713Z,16.55
2024-02-23T00:27:21.781Z,8.63
2024-02-23T00:29:51.354Z,9.40
2024-02-23T00:32:19.691Z,8.05
2024-02-23T00:34:48.474Z,9.55
2024-02-23T00:37:19.841Z,9.50
2024-02-23T00:39:49.767Z,11.70
2024-02-23T00:42:22.247Z,6.18
2024-02-23T00:44:51.673Z,9.30
2024-02-23T00:47:19.663Z,7.55
2024-02-23T00:49:48.884Z,8.95
2024-02-23T00:52:17.680Z,8.48
2024-02-23T00:54:47.826Z,7.30
2024-02-23T00:57:15.788Z,7.93
2024-02-23T00:59:46.405Z,5.68
2024-02-23T01:02:16.777Z,10.05
2024-02-23T01:04:46.908Z,8.90
2024-02-23T01:07:15.352Z,9.27
2024-02-23T01:09:43.785Z,11.73
2024-02-23T01:12:13.674Z,7.63
2024-02-23T01:14:42.702Z,8.43
2024-02-23T01:17:13.277Z,7.32
2024-02-23T01:19:43.502Z,12.32
2024-02-23T01:22:16.383Z,8.02
2024-02-23T01:24:45.477Z,8.27
2024-02-23T01:27:13.585Z,10.88
2024-02-23T01:29:42.761Z,11.88
2024-02-23T01:32:12.716Z,5.82
2024-02-23T01:34:41.157Z,6.82
2024-02-23T01:37:10.436Z,7.40
2024-02-23T01:39:40.616Z,7.90
2024-02-23T01:42:10.576Z,8.05
2024-02-23T01:44:39.039Z,11.10
2024-02-23T01:47:09.583Z,7.93
2024-02-23T01:49:41.194Z,10.68
2024-02-23T01:52:10.189Z,7.45
2024-02-23T01:54:41.065Z,12.82
2024-02-23T01:57:23.553Z,8.50
2024-02-23T01:59:59.379Z,10.63
2024-02-23T02:02:31.633Z,6.63
2024-02-23T02:05:04.977Z,10.93
2024-02-23T02:07:35.861Z,8.20
2024-02-23T02:10:08.399Z,8.05
2024-02-23T02:12:37.333Z,12.35
2024-02-23T02:15:08.202Z,10.32
2024-02-23T02:17:38.581Z,8.20
2024-02-23T02:20:14.449Z,9.48
2024-02-23T02:22:42.888Z,11.10
2024-02-23T02:25:14.359Z,11.55
2024-02-23T02:27:46.782Z,10.02
2024-02-23T02:30:15.530Z,10.60
2024-02-23T02:32:44.788Z,14.20
2024-02-23T02:35:17.184Z,9.63
2024-02-23T02:37:47.709Z,12.77
2024-02-23T02:40:18.663Z,10.38
2024-02-23T02:42:47.883Z,9.35
2024-02-23T02:45:17.633Z,7.70
2024-02-23T02:47:48.317Z,8.02
2024-02-23T02:50:18.419Z,10.98
2024-02-23T02:52:48.702Z,7.40
2024-02-23T02:55:19.620Z,8.45
2024-02-23T02:57:48.928Z,11.68
2024-02-23T03:00:18.853Z,9.63
2024-02-23T03:02:47.626Z,10.30
2024-02-23T03:05:22.316Z,10.50
2024-02-23T03:07:50.748Z,6.90
2024-02-23T03:10:20.619Z,16.15
2024-02-23T03:12:49.139Z,10.68
2024-02-23T03:15:21.520Z,7.35
2024-02-23T03:17:49.562Z,12.13
2024-02-23T03:20:22.804Z,12.80
2024-02-23T03:22:51.442Z,9.98
2024-02-23T03:25:21.977Z,9.27
2024-02-23T03:27:50.586Z,8.48
2024-02-23T03:30:22.496Z,15.05
2024-02-23T03:32:50.525Z,8.25
2024-02-23T03:35:20.687Z,10.60
2024-02-23T03:37:48.797Z,6.28
2024-02-23T03:40:19.629Z,8.30
2024-02-23T03:42:50.786Z,9.02
2024-02-23T03:45:19.001Z,10.70
2024-02-23T03:47:47.668Z,7.15
2024-02-23T03:50:18.936Z,8.20
2024-02-23T03:52:48.682Z,10.80
2024-02-23T03:55:19.107Z,8.82
2024-02-23T03:57:49.144Z,11.05
2024-02-23T04:00:22.159Z,9.68
2024-02-23T04:02:51.070Z,6.85
2024-02-23T04:05:22.329Z,5.78
2024-02-23T04:07:53.753Z,10.05
2024-02-23T04:10:22.650Z,7.70
2024-02-23T04:12:52.902Z,4.57
2024-02-23T04:15:21.082Z,8.77
2024-02-23T04:17:50.241Z,9.15
2024-02-23T04:20:20.593Z,10.95
2024-02-23T04:22:49.366Z,11.88
2024-02-23T04:25:20.177Z,10.55
2024-02-23T04:27:48.411Z,9.38
2024-02-23T04:30:20.937Z,9.30
2024-02-23T04:32:49.750Z,11.63
2024-02-23T04:35:19.162Z,12.50
2024-02-23T04:37:51.784Z,11.02
2024-02-23T04:40:22.598Z,7.88
2024-02-23T04:42:51.358Z,10.20
2024-02-23T04:45:21.589Z,8.88
2024-02-23T04:47:50.311Z,12.43
2024-02-23T04:50:21.917Z,10.43
2024-02-23T04:52:52.619Z,8.65
2024-02-23T04:55:23.769Z,8.60
2024-02-23T04:57:53.024Z,6.10
2024-02-23T05:00:23.499Z,6.47
2024-02-23T05:02:53.238Z,8.25
2024-02-23T05:05:23.871Z,6.88
2024-02-23T05:07:56.110Z,8.60
2024-02-23T05:10:26.174Z,8.13
2024-02-23T05:12:55.215Z,8.20
2024-02-23T05:15:23.593Z,6.38
2024-02-23T05:17:53.088Z,8.05
2024-02-23T05:20:23.977Z,5.80
2024-02-23T05:22:53.688Z,10.75
2024-02-23T05:25:22.846Z,6.75
2024-02-23T05:27:55.389Z,8.40
2024-02-23T05:30:24.034Z,8.25
2024-02-23T05:32:53.727Z,7.93
2024-02-23T05:35:25.691Z,8.50
2024-02-23T05:37:54.512Z,6.65
2024-02-23T05:40:23.692Z,7.97
2024-02-23T05:42:56.244Z,11.02
2024-02-23T05:45:24.833Z,6.40
2024-02-23T05:47:53.948Z,6.95
2024-02-23T05:50:22.923Z,6.50
2024-02-23T05:52:54.989Z,6.72
2024-02-23T05:55:23.544Z,6.32
2024-02-23T05:57:56.815Z,9.13
2024-02-23T06:00:25.810Z,6.13
2024-02-23T06:08:13.513Z,7.22
2024-02-23T06:10:44.612Z,8.52
2024-02-23T06:13:14.699Z,10.52
2024-02-23T06:15:43.775Z,7.82
2024-02-23T06:18:12.329Z,8.13
2024-02-23T06:20:45.031Z,10.68
2024-02-23T06:23:15.070Z,10.05
2024-02-23T06:25:47.308Z,9.02
2024-02-23T06:28:17.764Z,8.23
2024-02-23T06:30:46.689Z,8.45
2024-02-23T06:33:18.603Z,9.50
2024-02-23T06:35:47.861Z,9.55
2024-02-23T06:38:18.480Z,11.32
2024-02-23T06:40:52.299Z,9.52
2024-02-23T06:43:23.610Z,11.77
2024-02-23T06:45:52.711Z,10.70
2024-02-23T06:48:23.959Z,9.35
2024-02-23T06:50:54.245Z,8.10
2024-02-23T06:53:24.500Z,9.55
2024-02-23T06:55:55.884Z,12.82
2024-02-23T06:58:28.167Z,8.02
2024-02-23T07:00:57.244Z,8.30
2024-02-23T07:03:26.320Z,9.63
2024-02-23T07:05:55.307Z,12.02
2024-02-23T07:08:24.119Z,9.68
2024-02-23T07:10:52.950Z,10.27
2024-02-23T07:13:23.373Z,14.32
2024-02-23T07:15:55.154Z,11.23
2024-02-23T07:18:25.029Z,10.88
2024-02-23T07:20:54.141Z,9.90
2024-02-23T07:23:24.399Z,13.82
2024-02-23T07:25:54.504Z,9.50
2024-02-23T07:28:24.925Z,10.35
2024-02-23T07:30:56.210Z,12.60
2024-02-23T07:33:26.522Z,12.13
2024-02-23T07:35:55.832Z,10.30
2024-02-23T07:38:27.481Z,11.18
2024-02-23T07:40:56.640Z,14.23
2024-02-23T07:43:27.785Z,11.57
2024-02-23T07:45:58.091Z,15.02
2024-02-23T07:48:29.015Z,10.27
2024-02-23T07:50:58.107Z,17.08
2024-02-23T07:53:26.604Z,17.65
2024-02-23T07:55:55.016Z,19.23
2024-02-23T07:58:27.396Z,13.93
2024-02-23T08:00:58.246Z,13.27
2024-02-23T08:03:28.313Z,12.13
2024-02-23T08:06:00.310Z,11.18
2024-02-23T08:08:34.297Z,13.88
2024-02-23T08:11:04.863Z,16.55
2024-02-23T08:13:34.620Z,14.85
2024-02-23T08:16:06.016Z,13.63
2024-02-23T08:18:38.527Z,13.52
2024-02-23T08:21:10.112Z,12.00
2024-02-23T08:23:40.195Z,12.73
2024-02-23T08:26:11.773Z,17.25
2024-02-23T08:28:41.249Z,15.77
2024-02-23T08:31:11.145Z,11.68
2024-02-23T08:33:40.562Z,13.77
2024-02-23T08:36:12.164Z,15.63
2024-02-23T08:38:41.551Z,16.08
2024-02-23T08:41:11.693Z,10.15
2024-02-23T08:43:43.376Z,13.95
2024-02-23T08:46:14.602Z,12.50
2024-02-23T08:48:44.407Z,11.52
2024-02-23T08:51:12.641Z,15.30
2024-02-23T08:53:41.309Z,15.55
2024-02-23T08:56:13.480Z,14.95
2024-02-23T08:58:42.191Z,10.15
2024-02-23T09:01:15.258Z,16.90
2024-02-23T09:03:44.310Z,16.08
2024-02-23T09:06:13.596Z,14.90
2024-02-23T09:08:43.661Z,9.82
2024-02-23T09:11:15.097Z,11.95
2024-02-23T09:13:45.474Z,14.43
2024-02-23T09:16:16.167Z,10.75
2024-02-23T09:18:45.967Z,10.25
2024-02-23T09:21:14.862Z,12.55
2024-02-23T09:23:45.453Z,11.93
2024-02-23T09:26:15.103Z,11.32
2024-02-23T09:28:44.597Z,11.18
2024-02-23T09:31:15.080Z,10.57
2024-02-23T09:33:50.274Z,11.35
2024-02-23T09:36:20.104Z,12.13
2024-02-23T09:38:50.159Z,7.45
2024-02-23T09:41:22.684Z,11.57
2024-02-23T09:43:54.214Z,12.60
2024-02-23T09:46:24.175Z,10.18
2024-02-23T09:48:56.939Z,11.30
2024-02-23T09:51:27.819Z,18.15
2024-02-23T09:53:59.642Z,12.32
2024-02-23T09:56:32.399Z,9.40
2024-02-23T09:59:03.727Z,11.50
2024-02-23T10:01:34.485Z,10.95
2024-02-23T10:04:07.951Z,12.27
2024-02-23T10:06:36.899Z,18.15
2024-02-23T10:09:05.968Z,11.20
2024-02-23T10:11:36.032Z,11.48
2024-02-23T10:14:07.426Z,8.25
2024-02-23T10:16:36.227Z,10.55
2024-02-23T10:19:08.287Z,13.55
2024-02-23T10:21:37.363Z,12.15
2024-02-23T10:24:12.357Z,11.05
2024-02-23T10:26:42.438Z,10.52
2024-02-23T10:29:12.973Z,16.02
2024-02-23T10:31:44.054Z,12.82
2024-02-23T10:34:16.276Z,8.65
2024-02-23T10:36:47.214Z,10.07
2024-02-23T10:39:22.006Z,10.15
2024-02-23T10:42:00.348Z,10.85
2024-02-23T10:44:31.761Z,7.43
2024-02-23T10:47:04.703Z,6.18
2024-02-23T10:49:37.590Z,8.50
2024-02-23T10:52:08.848Z,8.60
2024-02-23T10:54:37.814Z,5.65
2024-02-23T10:57:08.928Z,6.50
2024-02-23T10:59:45.614Z,5.78
2024-02-23T11:02:19.587Z,5.50
2024-02-23T11:04:54.166Z,5.18
2024-02-23T11:07:27.094Z,6.03
2024-02-23T11:09:58.060Z,6.00
2024-02-23T11:12:28.049Z,5.45
2024-02-23T11:15:01.801Z,5.22
2024-02-23T11:17:34.638Z,6.43
2024-02-23T11:20:11.166Z,5.30
2024-02-23T11:22:40.330Z,7.15
2024-02-23T11:25:11.967Z,6.45
2024-02-23T11:27:45.437Z,3.55
2024-02-23T11:30:20.225Z,3.78
2024-02-23T11:32:56.130Z,2.30
2024-02-23T11:35:29.679Z,5.32
2024-02-23T11:38:05.929Z,4.18
2024-02-23T11:40:34.961Z,6.65
2024-02-23T11:43:05.998Z,3.83
2024-02-23T11:45:36.918Z,4.25
2024-02-23T11:48:09.389Z,6.22
2024-02-23T11:50:40.015Z,4.97
2024-02-23T11:53:10.571Z,3.38
2024-02-23T11:55:42.904Z,3.03
2024-02-23T11:58:18.395Z,5.85
2024-02-23T12:00:48.257Z,5.70
2024-02-23T12:03:17.783Z,4.55
2024-02-23T12:05:54.297Z,4.40
2024-02-23T12:08:25.401Z,6.93
2024-02-23T12:10:56.173Z,4.28
2024-02-23T12:13:25.270Z,4.18
2024-02-23T12:15:57.317Z,5.13
2024-02-23T12:18:31.554Z,3.67
2024-02-23T12:21:10.972Z,4.97
2024-02-23T12:23:48.382Z,4.97
2024-02-23T12:26:18.069Z,7.80
2024-02-23T12:28:48.475Z,9.18
2024-02-23T12:31:18.905Z,4.30
2024-02-23T12:33:50.026Z,3.28
2024-02-23T12:36:27.992Z,4.72
2024-02-23T12:38:57.672Z,6.32
2024-02-23T12:41:25.980Z,8.77
2024-02-23T12:43:55.035Z,7.38
2024-02-23T12:46:25.031Z,5.07
2024-02-23T12:48:53.848Z,6.95
2024-02-23T12:51:28.522Z,5.25
2024-02-23T12:53:57.231Z,5.88
2024-02-23T12:56:26.974Z,4.93
2024-02-23T12:58:58.419Z,3.60
2024-02-23T13:01:27.252Z,4.03
2024-02-23T13:03:56.448Z,7.00
2024-02-23T13:06:26.902Z,5.13
2024-02-23T13:08:56.818Z,2.53
2024-02-23T13:11:26.794Z,5.68
2024-02-23T13:13:57.438Z,5.30
2024-02-23T13:16:27.891Z,6.22
2024-02-23T13:19:00.461Z,5.10
2024-02-23T13:21:31.629Z,4.82
2024-02-23T13:24:03.964Z,4.57
2024-02-23T13:26:34.506Z,4.63
2024-02-23T13:29:06.000Z,3.40
2024-02-23T13:31:34.655Z,4.80
2024-02-23T13:34:03.128Z,2.35
2024-02-23T13:36:37.164Z,4.85
2024-02-23T13:39:06.017Z,4.80
2024-02-23T13:41:34.825Z,4.00
2024-02-23T13:44:05.686Z,3.53
2024-02-23T13:46:39.623Z,4.00
2024-02-23T13:49:11.313Z,4.60
2024-02-23T13:51:42.034Z,4.22
2024-02-23T13:54:11.311Z,3.70
2024-02-23T13:56:41.594Z,3.08
2024-02-23T13:59:10.146Z,2.10
2024-02-23T14:01:38.780Z,2.75
2024-02-23T14:04:09.746Z,4.28
2024-02-23T14:06:38.002Z,2.58
2024-02-23T14:09:09.043Z,5.80
2024-02-23T14:11:38.718Z,3.78
2024-02-23T14:14:07.639Z,3.30
2024-02-23T14:16:37.063Z,2.35
2024-02-23T14:19:07.654Z,1.63
2024-02-23T14:21:38.166Z,2.03
2024-02-23T14:24:08.801Z,3.28
2024-02-23T14:26:37.556Z,3.60
2024-02-23T14:29:07.169Z,2.50
2024-02-23T14:31:36.695Z,3.22
2024-02-23T14:34:05.164Z,2.75
2024-02-23T14:36:36.020Z,3.97
2024-02-23T14:43:20.180Z,9.60
2024-02-23T14:47:54.451Z,3.65
2024-02-23T14:50:23.397Z,13.27
2024-02-23T14:55:08.539Z,4.85
2024-02-23T14:57:37.676Z,7.20
2024-02-23T15:00:07.907Z,5.65
2024-02-23T15:02:37.146Z,4.57
2024-02-23T15:05:07.555Z,4.85
2024-02-23T15:07:38.361Z,7.97
2024-02-23T15:10:10.649Z,4.70
2024-02-23T15:12:42.740Z,4.28
2024-02-23T15:15:11.957Z,4.97
2024-02-23T15:17:43.799Z,3.97
2024-02-23T15:20:14.785Z,3.38
2024-02-23T15:22:44.727Z,6.50
2024-02-23T15:25:16.735Z,7.72
2024-02-23T15:27:48.775Z,10.02
2024-02-23T15:30:18.540Z,10.23
2024-02-23T15:32:48.212Z,11.70
2024-02-23T15:35:18.953Z,6.20
2024-02-23T15:37:49.788Z,5.57
2024-02-23T15:40:23.679Z,5.82
2024-02-23T15:42:52.505Z,4.30
2024-02-23T15:45:24.319Z,4.10
2024-02-23T15:47:52.763Z,3.33
2024-02-23T15:50:36.925Z,4.85
2024-02-23T15:53:14.657Z,3.60
2024-02-23T15:55:44.966Z,3.58
2024-02-23T15:58:16.644Z,2.75
2024-02-23T16:00:45.797Z,2.97
2024-02-23T16:03:15.075Z,2.83
2024-02-23T16:05:45.851Z,3.35
2024-02-23T16:08:16.039Z,2.78
2024-02-23T16:10:48.310Z,3.53
2024-02-23T16:13:20.151Z,4.07
2024-02-23T16:15:49.828Z,1.45
2024-02-23T16:22:33.778Z,1.88
2024-02-23T16:25:02.059Z,1.70
2024-02-23T16:27:32.695Z,4.03
2024-02-23T16:30:02.574Z,2.85
2024-02-23T16:32:31.582Z,5.55
2024-02-23T16:34:59.808Z,8.10
2024-02-23T16:37:28.881Z,10.23
2024-02-23T16:39:57.237Z,7.30
2024-02-23T16:42:29.233Z,7.20
2024-02-23T16:44:59.231Z,6.63
2024-02-23T16:47:27.756Z,11.98
2024-02-23T16:49:57.521Z,7.30
2024-02-23T16:52:26.606Z,8.10
2024-02-23T16:54:54.887Z,5.78
2024-02-23T16:57:23.091Z,12.30
2024-02-23T16:59:51.193Z,7.90
2024-02-23T17:02:21.597Z,10.70
2024-02-23T17:04:49.618Z,7.40
2024-02-23T17:07:17.705Z,10.48
2024-02-23T17:09:47.930Z,10.40
2024-02-23T17:12:20.038Z,12.43
2024-02-23T17:14:48.324Z,11.80
2024-02-23T17:17:16.729Z,9.63
2024-02-23T17:19:46.808Z,10.02
2024-02-23T17:22:16.530Z,7.68
2024-02-23T17:24:44.619Z,9.55
2024-02-23T17:27:13.368Z,10.63
2024-02-23T17:29:42.381Z,12.38
2024-02-23T17:32:11.706Z,7.82
2024-02-23T17:34:40.021Z,9.05
2024-02-23T17:37:11.116Z,11.18
2024-02-23T17:39:40.736Z,6.90
2024-02-23T17:42:09.135Z,11.32
2024-02-23T17:44:39.303Z,15.27
2024-02-23T17:47:07.670Z,11.82
2024-02-23T17:49:39.963Z,19.88
2024-02-23T17:52:10.266Z,13.43
2024-02-23T17:54:41.702Z,15.52
2024-02-23T17:57:10.488Z,13.95
2024-02-23T17:59:39.656Z,18.63
2024-02-23T18:02:08.615Z,15.68
2024-02-23T18:04:37.179Z,14.15
2024-02-23T18:07:07.428Z,13.55
2024-02-23T18:09:37.995Z,18.38
2024-02-23T18:12:07.500Z,11.48
2024-02-23T18:14:36.169Z,31.63
2024-02-23T18:17:05.792Z,22.70
2024-02-23T18:19:34.669Z,14.90
2024-02-23T18:22:03.138Z,13.40
2024-02-23T18:24:31.492Z,18.88
2024-02-23T18:27:01.941Z,14.85
2024-02-23T18:29:30.570Z,11.30
2024-02-23T18:31:59.206Z,17.88
2024-02-23T18:34:27.424Z,16.92
2024-02-23T18:36:55.692Z,15.30
2024-02-23T18:39:24.613Z,14.38
2024-02-23T18:41:53.532Z,16.40
2024-02-23T18:44:24.390Z,21.38
2024-02-23T18:46:53.016Z,16.85
2024-02-23T18:49:21.772Z,18.92
2024-02-23T18:51:50.538Z,17.08
2024-02-23T18:54:19.584Z,17.63
2024-02-23T18:56:47.906Z,20.23
2024-02-23T18:59:17.139Z,15.95
2024-02-23T19:01:47.288Z,10.98
2024-02-23T19:04:16.166Z,13.90
2024-02-23T19:06:44.853Z,16.30
2024-02-23T19:09:13.190Z,14.95
2024-02-23T19:11:42.835Z,18.55
2024-02-23T19:14:11.777Z,16.88
2024-02-23T19:16:43.313Z,16.67
2024-02-23T19:19:15.507Z,16.92
2024-02-23T19:21:44.996Z,20.02
2024-02-23T19:24:13.217Z,19.23
2024-02-23T19:26:41.653Z,18.77
2024-02-23T19:29:10.607Z,19.98
2024-02-23T19:31:38.546Z,11.55
2024-02-23T19:34:07.881Z,18.95
2024-02-23T19:36:41.842Z,14.80
2024-02-23T19:39:13.268Z,15.70
2024-02-23T19:41:45.647Z,13.90
2024-02-23T19:44:14.723Z,15.07
2024-02-23T19:46:43.339Z,20.88
2024-02-23T19:49:11.862Z,16.17
2024-02-23T19:51:41.892Z,17.30
2024-02-23T19:54:12.382Z,14.48
2024-02-23T19:56:43.650Z,14.95
2024-02-23T19:59:12.211Z,16.27
2024-02-23T20:01:41.494Z,16.05
2024-02-23T20:04:10.385Z,18.77
2024-02-23T20:06:39.966Z,16.67
2024-02-23T20:09:11.698Z,16.52
2024-02-23T20:11:40.848Z,17.35
2024-02-23T20:14:09.787Z,16.13
2024-02-23T20:16:40.665Z,18.48
2024-02-23T20:19:10.068Z,16.02
2024-02-23T20:21:41.878Z,11.85
2024-02-23T20:24:12.772Z,15.77
2024-02-23T20:26:42.525Z,15.55
2024-02-23T20:29:10.951Z,20.05
2024-02-23T20:31:40.053Z,10.50
2024-02-23T20:34:09.512Z,20.38
2024-02-23T20:36:38.531Z,13.98
2024-02-23T20:39:09.192Z,12.43
2024-02-23T20:41:41.236Z,17.17
2024-02-23T20:44:09.973Z,14.60
2024-02-23T20:46:38.385Z,10.20
2024-02-23T20:49:10.731Z,11.32
2024-02-23T20:51:39.660Z,11.05
2024-02-23T20:54:08.192Z,12.05
2024-02-23T20:56:37.140Z,12.18
2024-02-23T20:59:06.748Z,15.43
2024-02-23T21:01:35.229Z,8.35
2024-02-23T21:04:03.963Z,10.32
2024-02-23T21:06:32.482Z,13.27
2024-02-23T21:09:02.012Z,15.52
2024-02-23T21:11:31.438Z,13.48
2024-02-23T21:14:00.720Z,14.43
2024-02-23T21:16:33.254Z,10.30
2024-02-23T21:19:02.209Z,17.58
2024-02-23T21:21:30.462Z,16.58
2024-02-23T21:23:59.907Z,12.20
2024-02-23T21:26:28.838Z,12.45
2024-02-23T21:28:57.691Z,8.13
2024-02-23T21:31:26.284Z,11.18
2024-02-23T21:33:58.438Z,9.40
2024-02-23T21:36:27.146Z,14.93
2024-02-23T21:38:55.506Z,11.60
2024-02-23T21:41:24.766Z,10.60
2024-02-23T21:43:54.697Z,14.27
2024-02-23T21:46:23.666Z,9.55
2024-02-23T21:48:52.653Z,16.02
2024-02-23T21:51:23.571Z,15.18
2024-02-23T21:53:52.911Z,12.40
2024-02-23T21:56:20.970Z,9.07
2024-02-23T21:58:50.778Z,6.78
2024-02-23T22:01:22.854Z,13.85
2024-02-23T22:03:55.144Z,10.55
2024-02-23T22:06:24.894Z,11.40
2024-02-23T22:08:53.222Z,7.43
2024-02-23T22:11:21.363Z,11.80
2024-02-23T22:13:49.420Z,8.93
2024-02-23T22:16:17.740Z,10.23
2024-02-23T22:18:46.396Z,18.15
2024-02-23T22:21:16.582Z,9.73
2024-02-23T22:23:46.293Z,10.85
2024-02-23T22:26:14.684Z,9.77
2024-02-23T22:28:44.107Z,14.30
2024-02-23T22:31:12.266Z,8.95
2024-02-23T22:33:41.029Z,10.38
2024-02-23T22:36:09.709Z,7.57
2024-02-23T22:38:37.999Z,10.07
2024-02-23T22:41:07.799Z,15.00
2024-02-23T22:43:36.140Z,10.68
2024-02-23T22:46:04.536Z,13.27
2024-02-23T22:48:32.737Z,8.05
2024-02-23T22:51:00.783Z,16.70
2024-02-23T22:53:31.970Z,9.57
2024-02-23T22:56:00.697Z,15.77
2024-02-23T22:58:30.381Z,7.43
2024-02-23T23:00:58.852Z,11.90
2024-02-23T23:03:27.658Z,11.27
2024-02-23T23:05:56.314Z,14.35
2024-02-23T23:08:24.980Z,8.75
2024-02-23T23:10:54.162Z,9.00
2024-02-23T23:13:22.688Z,9.13
2024-02-23T23:15:54.068Z,14.57
2024-02-23T23:18:24.110Z,9.45
2024-02-23T23:20:52.465Z,9.20
2024-02-23T23:23:20.793Z,8.90
2024-02-23T23:25:51.386Z,8.38
2024-02-23T23:28:19.787Z,12.55
2024-02-23T23:30:52.098Z,20.83
2024-02-23T23:33:22.311Z,16.27
2024-02-23T23:35:51.102Z,17.15
2024-02-23T23:38:20.615Z,24.15
2024-02-23T23:40:49.333Z,11.35
2024-02-23T23:43:18.056Z,9.90
2024-02-23T23:45:46.609Z,11.45
2024-02-23T23:48:17.787Z,15.57
2024-02-23T23:50:50.210Z,9.02
2024-02-23T23:53:19.286Z,12.27
2024-02-23T23:55:48.096Z,8.60
2024-02-23T23:58:16.369Z,10.90
